Time;durP1;ratioP1;P1;durP2;ratioP2;P2;SDS_P1;SDS_P2;PMS_P1;PMS_P2;Temp;Humidity;BMP_temperature;BMP_pressure;BME280_temperature;BME280_humidity;BME280_pressure;Samples;Min_cycle;Max_cycle;Signal;HPM_P1;HPM_P2
2023/05/12 00:00:40;;;;;;;0.77;0.77;;;;;;;11.66;100.00;99908.97;5050475;28;20208;-72
2023/05/12 00:03:07;;;;;;;0.50;0.50;;;;;;;11.65;100.00;99909.84;5050577;28;20757;-72
2023/05/12 00:05:35;;;;;;;0.50;0.50;;;;;;;11.54;100.00;99907.53;5054652;28;20277;-72
2023/05/12 00:08:01;;;;;;;0.43;0.43;;;;;;;11.49;100.00;99908.53;5052920;28;20200;-72
2023/05/12 00:10:28;;;;;;;0.50;0.50;;;;;;;11.51;100.00;99911.91;5054086;28;20631;-72
2023/05/12 00:12:55;;;;;;;0.50;0.50;;;;;;;11.48;100.00;99907.69;5053851;28;20254;-73
2023/05/12 00:15:22;;;;;;;0.40;0.40;;;;;;;11.41;100.00;99906.16;5054154;28;20230;-73
2023/05/12 00:17:51;;;;;;;0.53;0.53;;;;;;;11.42;100.00;99902.72;5054278;28;20220;-72
2023/05/12 00:20:18;;;;;;;0.60;0.60;;;;;;;11.45;100.00;99902.63;5054065;28;20201;-72
2023/05/12 00:22:46;;;;;;;0.60;0.60;;;;;;;11.48;100.00;99909.41;5053655;28;20631;-72
2023/05/12 00:25:12;;;;;;;0.50;0.50;;;;;;;11.45;100.00;99905.22;5051448;28;20262;-72
2023/05/12 00:27:39;;;;;;;0.40;0.40;;;;;;;11.50;100.00;99905.91;5053989;28;20201;-72
2023/05/12 00:30:07;;;;;;;0.50;0.50;;;;;;;11.52;100.00;99904.19;5054005;28;20302;-72
2023/05/12 00:32:34;;;;;;;0.70;0.70;;;;;;;11.57;100.00;99910.03;5053990;28;20213;-73
2023/05/12 00:35:00;;;;;;;0.43;0.43;;;;;;;11.60;100.00;99906.53;5053849;28;20262;-73
2023/05/12 00:37:27;;;;;;;0.40;0.40;;;;;;;11.65;100.00;99903.84;5053701;28;20653;-72
2023/05/12 00:39:55;;;;;;;0.40;0.40;;;;;;;11.53;100.00;99910.97;5053758;28;20201;-72
2023/05/12 00:42:22;;;;;;;0.70;0.70;;;;;;;11.49;100.00;99913.69;5053157;28;20287;-69
2023/05/12 00:44:48;;;;;;;0.50;0.50;;;;;;;11.43;100.00;99918.97;5053745;28;20557;-73
2023/05/12 00:47:15;;;;;;;0.40;0.40;;;;;;;11.45;100.00;99918.03;5053805;28;20631;-72
2023/05/12 00:49:42;;;;;;;0.40;0.40;;;;;;;11.44;100.00;99916.34;5053003;28;20196;-72
2023/05/12 00:52:09;;;;;;;0.47;0.47;;;;;;;11.40;100.00;99921.63;5053269;28;20201;-72
2023/05/12 00:54:37;;;;;;;0.60;0.60;;;;;;;11.40;100.00;99919.91;5053513;28;20209;-72
2023/05/12 00:57:06;;;;;;;0.63;0.63;;;;;;;11.37;100.00;99925.09;5053574;28;20259;-72
2023/05/12 00:59:33;;;;;;;0.50;0.50;;;;;;;11.37;100.00;99925.09;5053410;28;20224;-72
2023/05/12 01:01:59;;;;;;;0.50;0.50;;;;;;;11.16;100.00;99883.72;5053544;28;20687;-73
2023/05/12 01:04:28;;;;;;;0.50;0.50;;;;;;;11.34;100.00;99929.47;5052985;28;20236;-71
2023/05/12 01:06:58;;;;;;;0.40;0.40;;;;;;;11.33;100.00;99926.06;5053094;28;20254;-72
2023/05/12 01:09:25;;;;;;;0.50;0.50;;;;;;;11.17;100.00;99905.94;5052669;28;20254;-72
2023/05/12 01:11:52;;;;;;;0.50;0.50;;;;;;;11.25;100.00;99921.97;5052955;28;20258;-72
2023/05/12 01:14:20;;;;;;;0.33;0.33;;;;;;;11.35;100.00;99920.88;5052854;28;20205;-72
2023/05/12 01:16:51;;;;;;;0.30;0.30;;;;;;;11.43;100.00;99924.97;5052979;28;20204;-72
2023/05/12 01:19:32;;;;;;;0.50;0.50;;;;;;;11.47;100.00;99931.66;5052803;28;20213;-72
2023/05/12 01:22:00;;;;;;;0.50;0.50;;;;;;;11.39;100.00;99922.50;5052971;28;20287;-72
2023/05/12 01:24:29;;;;;;;0.50;0.50;;;;;;;11.35;100.00;99929.41;5053176;28;20208;-72
2023/05/12 01:26:57;;;;;;;0.40;0.40;;;;;;;11.32;100.00;99921.81;5052837;28;20262;-72
2023/05/12 01:29:24;;;;;;;0.60;0.60;;;;;;;11.31;100.00;99922.66;5052897;28;20197;-72
2023/05/12 01:31:51;;;;;;;0.50;0.50;;;;;;;11.33;100.00;99917.50;5052546;28;20250;-72
2023/05/12 01:34:18;;;;;;;0.50;0.50;;;;;;;11.29;100.00;99914.19;5052661;28;20694;-73
2023/05/12 01:36:45;;;;;;;0.60;0.60;;;;;;;11.23;100.00;99916.91;5052652;28;20197;-72
2023/05/12 01:39:12;;;;;;;0.50;0.50;;;;;;;11.34;100.00;99914.88;5052419;28;20225;-72
2023/05/12 01:41:38;;;;;;;0.40;0.40;;;;;;;11.37;100.00;99914.81;5052529;28;20287;-72
2023/05/12 01:44:07;;;;;;;0.50;0.50;;;;;;;11.32;100.00;99911.53;5052773;28;20205;-72
2023/05/12 01:46:33;;;;;;;0.40;0.40;;;;;;;11.41;100.00;99911.28;5048862;28;20618;-73
2023/05/12 01:49:00;;;;;;;0.67;0.67;;;;;;;11.36;100.00;99892.63;5052332;28;20242;-73
2023/05/12 01:51:27;;;;;;;0.50;0.50;;;;;;;11.57;100.00;99911.75;5052351;28;20251;-72
2023/05/12 01:53:53;;;;;;;0.50;0.50;;;;;;;11.48;100.00;99900.00;5051892;28;20289;-72
2023/05/12 01:56:20;;;;;;;0.50;0.50;;;;;;;11.63;100.00;99908.19;5050169;28;20746;-72
2023/05/12 01:58:49;;;;;;;0.53;0.53;;;;;;;11.66;100.00;99908.09;5052276;28;20217;-72
2023/05/12 02:01:17;;;;;;;0.60;0.60;;;;;;;11.69;100.00;99914.00;5052230;28;20197;-73
2023/05/12 02:03:43;;;;;;;0.60;0.60;;;;;;;11.72;100.00;99913.97;5051688;28;20204;-72
2023/05/12 02:06:10;;;;;;;0.40;0.40;;;;;;;11.79;100.00;99906.94;5051863;28;20291;-73
2023/05/12 02:08:37;;;;;;;0.40;0.40;;;;;;;11.82;100.00;99912.00;5052206;28;20684;-72
2023/05/12 02:11:07;;;;;;;0.43;0.43;;;;;;;11.83;100.00;99909.34;5052101;28;20197;-72
2023/05/12 02:13:33;;;;;;;0.50;0.50;;;;;;;11.81;100.00;99905.16;5052411;28;20205;-72
2023/05/12 02:16:00;;;;;;;0.50;0.50;;;;;;;11.75;100.00;99905.31;5051722;28;20262;-72
2023/05/12 02:18:28;;;;;;;0.57;0.57;;;;;;;11.59;100.00;99910.84;5049510;28;20222;-72
2023/05/12 02:20:55;;;;;;;0.63;0.63;;;;;;;11.62;100.00;99911.63;5051868;28;20557;-72
2023/05/12 02:23:22;;;;;;;0.50;0.50;;;;;;;11.65;100.00;99908.97;5051438;28;20205;-73
2023/05/12 02:25:49;;;;;;;0.50;0.50;;;;;;;11.70;100.00;99909.69;5051318;28;20232;-73
2023/05/12 02:28:16;;;;;;;0.60;0.60;;;;;;;11.71;100.00;99907.13;5051735;28;20192;-72
2023/05/12 02:30:45;;;;;;;0.43;0.43;;;;;;;11.74;100.00;99907.03;5051771;28;20201;-73
2023/05/12 02:33:12;;;;;;;0.57;0.57;;;;;;;11.67;100.00;99908.06;5048863;28;20693;-72
2023/05/12 02:35:40;;;;;;;0.50;0.50;;;;;;;11.62;100.00;99909.06;5051511;28;20215;-72
2023/05/12 02:38:07;;;;;;;0.40;0.40;;;;;;;11.47;100.00;99879.50;5051633;28;20259;-73
2023/05/12 02:40:34;;;;;;;0.53;0.53;;;;;;;11.65;100.00;99904.69;5051558;28;20197;-72
2023/05/12 02:43:01;;;;;;;0.43;0.43;;;;;;;11.52;100.00;99893.91;5051628;28;20211;-73
2023/05/12 02:45:28;;;;;;;0.50;0.50;;;;;;;11.63;100.00;99900.47;5051191;28;20291;-72
2023/05/12 02:47:54;;;;;;;0.60;0.60;;;;;;;11.64;100.00;99902.16;5051319;28;20196;-74
2023/05/12 02:50:21;;;;;;;0.50;0.50;;;;;;;11.69;100.00;99902.88;5050635;28;20212;-72
2023/05/12 02:52:50;;;;;;;0.40;0.40;;;;;;;11.65;100.00;99906.41;5051033;28;20854;-72
2023/05/12 02:55:17;;;;;;;0.70;0.70;;;;;;;11.66;100.00;99901.25;5050846;28;20200;-72
2023/05/12 02:57:44;;;;;;;0.60;0.60;;;;;;;11.70;100.00;99909.69;5050755;28;20664;-73
2023/05/12 03:00:12;;;;;;;0.50;0.50;;;;;;;11.67;100.00;99904.63;5050495;28;20696;-73
2023/05/12 03:02:39;;;;;;;0.50;0.50;;;;;;;11.50;100.00;99889.69;5050373;28;20243;-72
2023/05/12 03:05:07;;;;;;;0.50;0.50;;;;;;;11.69;100.00;99918.28;5050614;28;20647;-72
2023/05/12 03:07:34;;;;;;;0.47;0.47;;;;;;;11.70;100.00;99917.41;5051261;28;20207;-73
2023/05/12 03:10:02;;;;;;;0.40;0.40;;;;;;;11.76;100.00;99922.44;5051201;28;20188;-73
2023/05/12 03:12:30;;;;;;;0.47;0.47;;;;;;;11.81;100.00;99925.69;5050981;28;20412;-74
2023/05/12 03:14:57;;;;;;;0.50;0.50;;;;;;;11.83;100.00;99926.50;5050557;28;20201;-73
2023/05/12 03:17:24;;;;;;;0.50;0.50;;;;;;;11.86;100.00;99931.53;5050731;28;20656;-73
2023/05/12 03:19:51;;;;;;;0.40;0.40;;;;;;;11.91;100.00;99937.41;5050291;28;20224;-73
2023/05/12 03:22:17;;;;;;;0.53;0.53;;;;;;;11.96;100.00;99935.56;5050798;28;20209;-73
2023/05/12 03:24:45;;;;;;;0.40;0.40;;;;;;;11.96;100.00;99940.69;5050401;28;20200;-72
2023/05/12 03:27:13;;;;;;;0.60;0.60;;;;;;;11.99;100.00;99941.47;5051102;28;20201;-73
2023/05/12 03:29:40;;;;;;;0.47;0.47;;;;;;;11.99;100.00;99945.75;5050586;28;20286;-73
2023/05/12 03:32:07;;;;;;;0.60;0.60;;;;;;;12.02;100.00;99948.22;5050257;28;20254;-73
2023/05/12 03:34:34;;;;;;;0.57;0.57;;;;;;;12.01;100.00;99949.13;5050373;28;20315;-73
2023/05/12 03:37:01;;;;;;;0.40;0.40;;;;;;;12.05;100.00;99950.75;5050726;28;20205;-73
2023/05/12 03:39:27;;;;;;;0.60;0.60;;;;;;;12.07;100.00;99951.53;5050802;28;20215;-73
2023/05/12 03:41:54;;;;;;;0.50;0.50;;;;;;;12.08;100.00;99954.03;5050742;28;20661;-73
2023/05/12 03:44:22;;;;;;;0.60;0.60;;;;;;;12.09;100.00;99952.31;5050339;28;20208;-73
2023/05/12 03:46:49;;;;;;;0.50;0.50;;;;;;;12.15;100.00;99962.44;5050341;28;20254;-73
2023/05/12 03:49:16;;;;;;;0.50;0.50;;;;;;;12.15;100.00;99959.88;5046589;28;20254;-73
2023/05/12 03:51:42;;;;;;;0.40;0.40;;;;;;;12.17;100.00;99960.69;5050471;28;20200;-73
2023/05/12 03:54:09;;;;;;;0.50;0.50;;;;;;;12.22;100.00;99969.09;5050605;28;20201;-72
2023/05/12 03:56:36;;;;;;;0.30;0.30;;;;;;;12.19;100.00;99964.03;5050598;28;20200;-73
2023/05/12 03:59:02;;;;;;;0.50;0.50;;;;;;;12.19;100.00;99964.03;5048184;28;20680;-74
2023/05/12 04:01:30;;;;;;;0.50;0.50;;;;;;;12.18;100.00;99964.91;5050079;28;20227;-73
2023/05/12 04:03:57;;;;;;;0.60;0.60;;;;;;;12.24;100.00;99966.50;5049977;28;20290;-73
2023/05/12 04:06:24;;;;;;;0.53;0.53;;;;;;;12.15;99.34;99962.44;5049794;28;20252;-73
2023/05/12 04:08:51;;;;;;;0.47;0.47;;;;;;;12.15;100.00;99966.75;5049684;28;20247;-73
2023/05/12 04:11:17;;;;;;;0.60;0.60;;;;;;;12.17;99.58;99972.69;5050184;28;20262;-73
2023/05/12 04:13:44;;;;;;;0.40;0.40;;;;;;;12.16;99.60;99974.41;5050317;28;20259;-73
2023/05/12 04:16:11;;;;;;;0.40;0.40;;;;;;;12.18;99.05;99972.63;5049639;28;20208;-72
2023/05/12 04:18:39;;;;;;;0.50;0.50;;;;;;;12.14;99.29;99968.47;5049771;28;20285;-73
2023/05/12 04:21:05;;;;;;;0.57;0.57;;;;;;;12.00;100.00;99947.44;5050194;28;20197;-74
2023/05/12 04:23:32;;;;;;;0.50;0.50;;;;;;;12.12;100.00;99972.81;5049871;28;20287;-73
2023/05/12 04:25:59;;;;;;;0.50;0.50;;;;;;;12.10;100.00;99969.44;5050174;28;20266;-74
2023/05/12 04:28:26;;;;;;;0.40;0.40;;;;;;;12.14;100.00;99971.06;5050142;28;20259;-74
2023/05/12 04:30:52;;;;;;;0.50;0.50;;;;;;;12.19;100.00;99969.19;5049930;28;20561;-74
2023/05/12 04:33:19;;;;;;;0.37;0.37;;;;;;;12.21;100.00;99971.72;5049641;28;20205;-74
2023/05/12 04:35:47;;;;;;;0.40;0.40;;;;;;;12.16;100.00;99966.69;5049922;28;20197;-73
2023/05/12 04:38:14;;;;;;;0.40;0.40;;;;;;;12.13;100.00;99964.22;5050043;28;20205;-73
2023/05/12 04:40:40;;;;;;;0.50;0.50;;;;;;;12.18;100.00;99957.22;5049880;28;20259;-73
2023/05/12 04:43:07;;;;;;;0.50;0.50;;;;;;;12.24;100.00;99962.22;5049681;28;20761;-73
2023/05/12 04:45:34;;;;;;;0.40;0.40;;;;;;;12.09;100.00;99940.31;5049940;28;20618;-73
2023/05/12 04:48:00;;;;;;;0.50;0.50;;;;;;;12.19;99.79;99958.91;5049818;28;20232;-73
2023/05/12 04:50:27;;;;;;;0.60;0.60;;;;;;;12.17;99.73;99959.84;5051955;28;20204;-73
2023/05/12 04:52:55;;;;;;;0.50;0.50;;;;;;;12.04;99.54;99965.31;5053379;28;20251;-72
2023/05/12 04:55:22;;;;;;;0.53;0.53;;;;;;;12.07;100.00;99964.38;5053613;28;20227;-73
2023/05/12 04:57:49;;;;;;;0.50;0.50;;;;;;;12.16;100.00;99969.28;5053833;28;20282;-74
2023/05/12 05:00:16;;;;;;;0.90;0.90;;;;;;;12.21;99.48;99971.72;5052978;28;20220;-73
2023/05/12 05:02:42;;;;;;;0.40;0.40;;;;;;;12.24;99.98;99969.91;5053619;28;20201;-73
2023/05/12 05:05:10;;;;;;;0.47;0.47;;;;;;;12.33;99.34;99967.09;5052980;28;20270;-73
2023/05/12 05:07:37;;;;;;;0.53;0.53;;;;;;;12.40;99.77;99973.75;5052881;28;20207;-73
2023/05/12 05:10:07;;;;;;;0.60;0.60;;;;;;;12.40;99.62;99971.16;5053158;28;20252;-72
2023/05/12 05:12:33;;;;;;;0.60;0.60;;;;;;;12.42;99.89;99966.81;5052894;28;20216;-73
2023/05/12 05:15:00;;;;;;;0.50;0.50;;;;;;;12.26;100.00;99969.84;5053083;28;20201;-72
2023/05/12 05:17:28;;;;;;;0.50;0.50;;;;;;;12.33;99.80;99971.38;5053068;28;20205;-73
2023/05/12 05:19:54;;;;;;;0.40;0.40;;;;;;;12.40;99.50;99973.75;5052767;28;20244;-73
2023/05/12 05:22:21;;;;;;;0.50;0.50;;;;;;;12.38;99.32;99970.34;5053530;28;20209;-73
2023/05/12 05:24:48;;;;;;;0.40;0.40;;;;;;;12.46;99.88;99978.72;5053352;28;20216;-73
2023/05/12 05:27:16;;;;;;;0.50;0.50;;;;;;;12.44;99.65;99979.66;5052771;28;20295;-73
2023/05/12 05:29:43;;;;;;;0.40;0.40;;;;;;;12.40;100.00;99973.75;5052807;28;20243;-73
2023/05/12 05:32:09;;;;;;;0.50;0.50;;;;;;;12.37;100.00;99972.97;5052812;28;20204;-73
2023/05/12 05:34:36;;;;;;;0.40;0.40;;;;;;;12.46;100.00;99972.72;5052982;28;20205;-72
2023/05/12 05:37:03;;;;;;;0.43;0.43;;;;;;;12.56;100.00;99977.56;5052691;28;20204;-73
2023/05/12 05:39:30;;;;;;;0.40;0.40;;;;;;;12.56;99.43;99975.00;5052942;28;20627;-72
2023/05/12 05:41:57;;;;;;;0.50;0.50;;;;;;;12.69;98.69;99980.63;5052858;28;20211;-73
2023/05/12 05:44:25;;;;;;;0.70;0.70;;;;;;;12.57;98.39;99965.50;5052574;28;20224;-72
2023/05/12 05:46:52;;;;;;;0.40;0.40;;;;;;;12.74;98.38;99977.88;5052088;28;20695;-73
2023/05/12 05:49:19;;;;;;;0.50;0.50;;;;;;;12.87;99.01;99974.06;5052210;28;20267;-73
2023/05/12 05:51:46;;;;;;;0.40;0.40;;;;;;;13.03;99.31;99980.41;5052447;28;20665;-72
2023/05/12 05:54:13;;;;;;;0.50;0.50;;;;;;;13.12;97.75;99985.31;5052422;28;20208;-73
2023/05/12 05:56:40;;;;;;;0.50;0.50;;;;;;;13.17;95.86;99969.72;5052171;28;20200;-72
2023/05/12 05:59:06;;;;;;;0.47;0.47;;;;;;;13.13;95.83;99961.25;5052141;28;20299;-74
2023/05/12 06:01:35;;;;;;;0.40;0.40;;;;;;;13.35;95.88;99982.84;5051345;28;20283;-74
2023/05/12 06:04:01;;;;;;;0.40;0.40;;;;;;;13.38;95.67;99987.91;5046943;28;20232;-75
2023/05/12 06:06:29;;;;;;;0.60;0.60;;;;;;;13.48;94.02;99986.72;5052170;28;20205;-73
2023/05/12 06:08:55;;;;;;;0.40;0.40;;;;;;;13.50;93.78;99987.53;5052176;28;20197;-73
2023/05/12 06:11:22;;;;;;;0.40;0.40;;;;;;;13.57;94.71;99991.56;5052377;28;20201;-73
2023/05/12 06:13:49;;;;;;;0.70;0.70;;;;;;;13.60;93.82;99999.19;5052124;28;20766;-73
2023/05/12 06:16:16;;;;;;;0.50;0.50;;;;;;;13.64;94.44;99990.47;5051949;28;20227;-73
2023/05/12 06:18:44;;;;;;;0.50;0.50;;;;;;;13.82;94.51;99991.63;5051460;28;20198;-72
2023/05/12 06:21:11;;;;;;;0.63;0.63;;;;;;;13.90;93.44;99991.34;5052229;28;20222;-73
2023/05/12 06:23:37;;;;;;;0.70;0.70;;;;;;;14.15;93.95;99993.00;5052305;28;20290;-74
2023/05/12 06:26:06;;;;;;;0.40;0.40;;;;;;;14.36;92.25;99998.34;5051927;28;20288;-74
2023/05/12 06:28:33;;;;;;;0.30;0.30;;;;;;;14.29;91.90;99983.94;5052008;28;20291;-73
2023/05/12 06:30:59;;;;;;;0.50;0.50;;;;;;;14.39;91.18;100000.81;5051847;28;20200;-74
2023/05/12 06:33:26;;;;;;;0.50;0.50;;;;;;;14.20;91.28;100001.44;5051982;28;20203;-73
2023/05/12 06:35:54;;;;;;;0.57;0.57;;;;;;;14.13;91.20;99993.97;5051967;28;20212;-73
2023/05/12 06:38:21;;;;;;;0.70;0.70;;;;;;;14.15;91.91;99999.94;5052142;28;20690;-73
2023/05/12 06:40:48;;;;;;;0.80;0.80;;;;;;;14.33;92.91;99996.72;5051593;28;20699;-72
2023/05/12 06:43:14;;;;;;;0.43;0.43;;;;;;;14.53;91.54;99991.69;5041886;28;20954;-72
2023/05/12 06:45:41;;;;;;;0.50;0.50;;;;;;;14.77;89.88;99995.06;5049431;28;20285;-72
2023/05/12 06:48:08;;;;;;;0.60;0.60;;;;;;;14.57;87.66;100000.97;5045051;28;20205;-71
2023/05/12 06:50:34;;;;;;;1.43;1.43;;;;;;;14.52;88.99;99992.56;5048726;28;20231;-72
2023/05/12 06:53:04;;;;;;;0.40;0.40;;;;;;;14.71;89.71;99993.56;5047444;28;20200;-73
2023/05/12 06:55:30;;;;;;;0.60;0.60;;;;;;;14.91;88.49;99994.56;5051029;28;20215;-73
2023/05/12 06:57:57;;;;;;;0.53;0.53;;;;;;;14.96;86.37;99992.66;5050252;28;20197;-72
2023/05/12 07:00:24;;;;;;;0.60;0.60;;;;;;;14.94;87.21;99984.94;5046020;28;20232;-73
2023/05/12 07:02:52;;;;;;;0.60;0.60;;;;;;;14.96;85.54;99993.47;5050738;28;20210;-72
2023/05/12 07:05:19;;;;;;;0.60;0.60;;;;;;;14.93;86.59;99990.16;5050190;28;20284;-72
2023/05/12 07:07:46;;;;;;;1.07;1.07;;;;;;;14.79;86.51;100000.19;5050376;28;20218;-73
2023/05/12 07:10:14;;;;;;;0.43;0.43;;;;;;;14.75;84.75;99994.28;5050211;28;21269;-72
2023/05/12 07:12:41;;;;;;;0.40;0.40;;;;;;;14.81;85.41;99998.38;5050615;28;20211;-73
2023/05/12 07:15:08;;;;;;;0.60;0.60;;;;;;;14.70;85.68;99999.63;5050101;28;20202;-71
2023/05/12 07:17:35;;;;;;;0.50;0.50;;;;;;;14.64;84.95;100005.00;5050900;28;20699;-73
2023/05/12 07:20:03;;;;;;;0.50;0.50;;;;;;;14.66;83.53;99999.81;5050498;28;20652;-72
2023/05/12 07:22:31;;;;;;;0.90;0.90;;;;;;;14.71;82.72;100008.22;5044047;28;20200;-73
2023/05/12 07:24:57;;;;;;;2.77;1.33;;;;;;;14.75;82.50;99998.59;5050442;28;20207;-73
2023/05/12 07:27:25;;;;;;;0.70;0.70;;;;;;;14.60;81.28;100000.84;5050078;28;20633;-72
2023/05/12 07:29:52;;;;;;;0.60;0.60;;;;;;;14.66;83.22;100008.41;5050243;28;20298;-73
2023/05/12 07:32:19;;;;;;;0.70;0.70;;;;;;;14.88;81.91;100010.16;5050705;28;20197;-71
2023/05/12 07:34:46;;;;;;;0.40;0.40;;;;;;;14.88;81.85;100005.00;5051102;28;20197;-74
2023/05/12 07:37:12;;;;;;;0.50;0.50;;;;;;;14.84;82.15;99998.25;5050823;28;20194;-71
2023/05/12 07:39:39;;;;;;;0.53;0.53;;;;;;;14.94;79.89;100010.75;5050979;28;20215;-73
2023/05/12 07:42:06;;;;;;;0.60;0.60;;;;;;;15.07;82.02;100001.66;5050861;28;20201;-72
2023/05/12 07:44:35;;;;;;;0.50;0.50;;;;;;;15.26;82.06;99996.59;5050773;28;20254;-73
2023/05/12 07:47:01;;;;;;;0.67;0.67;;;;;;;15.33;79.00;99995.47;5050138;28;20299;-72
2023/05/12 07:49:28;;;;;;;0.50;0.50;;;;;;;15.32;78.95;99996.34;5050660;28;20200;-72
2023/05/12 07:51:55;;;;;;;0.43;0.43;;;;;;;15.48;78.55;99997.44;5050871;28;20198;-73
2023/05/12 07:54:21;;;;;;;0.77;0.77;;;;;;;15.54;75.56;99997.19;5050697;28;20684;-71
2023/05/12 07:56:48;;;;;;;0.50;0.50;;;;;;;15.49;76.15;99986.22;5050847;28;20199;-72
2023/05/12 07:59:15;;;;;;;0.60;0.60;;;;;;;15.63;78.11;99991.66;5050429;28;20270;-71
2023/05/12 08:01:43;;;;;;;0.40;0.40;;;;;;;15.73;78.95;99997.31;5050920;28;20639;-73
2023/05/12 08:04:10;;;;;;;0.57;0.57;;;;;;;16.10;77.74;99996.56;5050683;28;20224;-74
2023/05/12 08:06:37;;;;;;;0.87;0.87;;;;;;;16.53;77.46;99995.53;5050679;28;20636;-73
2023/05/12 08:09:04;;;;;;;0.50;0.50;;;;;;;16.83;71.65;100004.53;5051113;28;20201;-72
2023/05/12 08:11:30;;;;;;;0.50;0.50;;;;;;;17.02;71.37;99994.16;5050461;28;20204;-71
2023/05/12 08:13:57;;;;;;;0.70;0.70;;;;;;;17.21;69.59;100002.72;5050682;28;20197;-73
2023/05/12 08:16:24;;;;;;;0.50;0.50;;;;;;;17.54;69.94;100006.28;5050623;28;20341;-71
2023/05/12 08:18:52;;;;;;;0.90;0.90;;;;;;;17.18;67.12;100006.31;5050790;28;20273;-72
2023/05/12 08:21:19;;;;;;;0.50;0.50;;;;;;;17.35;69.11;100004.66;5050575;28;20278;-72
2023/05/12 08:23:45;;;;;;;0.50;0.50;;;;;;;17.58;68.05;100000.06;5045185;28;21587;-73
2023/05/12 08:26:12;;;;;;;0.50;0.50;;;;;;;17.87;67.22;100006.38;5054395;28;20264;-72
2023/05/12 08:28:39;;;;;;;0.50;0.50;;;;;;;17.94;66.94;99996.53;5054442;28;20264;-71
2023/05/12 08:31:06;;;;;;;0.60;0.60;;;;;;;18.01;66.12;100001.34;5054372;28;20194;-73
2023/05/12 08:33:34;;;;;;;0.70;0.70;;;;;;;18.01;64.24;100005.69;5054183;28;20203;-71
2023/05/12 08:36:02;;;;;;;0.70;0.70;;;;;;;17.86;64.32;100009.91;5051675;28;20197;-73
2023/05/12 08:38:29;;;;;;;0.63;0.63;;;;;;;17.80;62.94;100000.66;5053955;28;20631;-72
2023/05/12 08:41:08;;;;;;;1.10;1.10;;;;;;;17.74;63.77;100011.34;5054162;28;20213;-71
2023/05/12 08:43:38;;;;;;;0.60;0.60;;;;;;;17.21;65.83;99990.63;5051750;28;20250;-71
2023/05/12 08:46:06;;;;;;;0.50;0.50;;;;;;;17.54;68.22;99998.50;5054149;28;20219;-72
2023/05/12 08:48:35;;;;;;;0.60;0.60;;;;;;;17.45;65.43;100014.50;5053921;28;20251;-71
2023/05/12 08:51:08;;;;;;;0.60;0.60;;;;;;;17.28;63.37;100017.06;5054043;28;20243;-72
2023/05/12 08:53:37;;;;;;;0.50;0.50;;;;;;;17.21;65.89;100016.53;5053704;28;20196;-70
2023/05/12 08:56:06;;;;;;;0.50;0.50;;;;;;;17.22;67.25;99997.44;5053942;28;20207;-72
2023/05/12 08:58:33;;;;;;;0.70;0.70;;;;;;;17.52;66.59;100004.66;5053843;28;20372;-73
2023/05/12 09:01:02;;;;;;;0.50;0.50;;;;;;;17.21;64.33;100010.50;5053935;28;20685;-72
2023/05/12 09:03:29;;;;;;;0.50;0.50;;;;;;;17.41;66.25;100005.22;5053692;28;20200;-72
2023/05/12 09:05:58;;;;;;;0.60;0.60;;;;;;;17.46;62.51;99990.25;5053395;28;20224;-71
2023/05/12 09:08:28;;;;;;;0.60;0.60;;;;;;;17.49;62.62;99995.28;5053585;28;20209;-72
2023/05/12 09:10:56;;;;;;;0.47;0.47;;;;;;;17.87;64.12;100000.38;5053718;28;20745;-72
2023/05/12 09:13:29;;;;;;;0.30;0.30;;;;;;;17.81;62.13;99997.16;5053530;28;20270;-72
2023/05/12 09:15:59;;;;;;;0.50;0.50;;;;;;;17.52;60.61;99994.28;5053056;28;20320;-72
2023/05/12 09:18:27;;;;;;;0.50;0.50;;;;;;;17.45;64.57;99992.94;5053542;28;20215;-73
2023/05/12 09:20:53;;;;;;;0.60;0.60;;;;;;;17.31;65.88;99993.59;5053247;28;20306;-73
2023/05/12 09:23:21;;;;;;;0.50;0.50;;;;;;;17.49;65.58;99990.09;5053479;28;20228;-72
2023/05/12 09:26:00;;;;;;;0.73;0.50;;;;;;;17.69;64.65;99990.00;5053293;28;20276;-72
2023/05/12 09:28:35;;;;;;;0.50;0.50;;;;;;;17.75;62.02;99991.44;5053240;28;20736;-72
2023/05/12 09:31:02;;;;;;;0.60;0.60;;;;;;;17.50;62.31;99984.00;5053120;28;20192;-71
2023/05/12 09:33:34;;;;;;;0.50;0.50;;;;;;;17.49;62.97;99953.81;5053195;28;20295;-72
2023/05/12 09:36:01;;;;;;;0.50;0.50;;;;;;;17.91;62.86;99981.13;5052914;28;20205;-73
2023/05/12 09:38:28;;;;;;;0.50;0.50;;;;;;;18.07;60.42;99987.22;5053097;28;20201;-72
2023/05/12 09:40:56;;;;;;;0.50;0.50;;;;;;;18.09;61.51;99981.06;5052742;28;20249;-72
2023/05/12 09:43:23;;;;;;;0.50;0.50;;;;;;;18.37;62.20;99980.44;5053384;28;20271;-73
2023/05/12 09:45:50;;;;;;;0.60;0.60;;;;;;;18.51;59.43;99983.19;5052895;28;20201;-71
2023/05/12 09:48:17;;;;;;;0.50;0.50;;;;;;;18.66;59.79;99977.16;5049060;28;20203;-72
2023/05/12 09:50:46;;;;;;;0.57;0.57;;;;;;;18.63;59.08;99966.09;5052309;28;20244;-72
2023/05/12 09:53:13;;;;;;;0.50;0.50;;;;;;;18.86;58.16;99979.50;5050416;28;20209;-71
2023/05/12 09:55:43;;;;;;;0.40;0.40;;;;;;;18.85;57.48;99996.00;5052683;28;20221;-71
2023/05/12 09:58:11;;;;;;;0.50;0.50;;;;;;;18.60;56.47;99982.69;5052463;28;20198;-72
2023/05/12 10:00:39;;;;;;;0.50;0.50;;;;;;;18.68;57.19;99980.50;5052122;28;20210;-71
2023/05/12 10:03:10;;;;;;;0.50;0.50;;;;;;;18.44;56.98;99975.75;5052521;28;20197;-73
2023/05/12 10:05:43;;;;;;;0.53;0.53;;;;;;;18.47;58.47;99950.47;5049968;28;20830;-73
2023/05/12 10:08:16;;;;;;;0.50;0.50;;;;;;;18.74;58.22;99985.34;5052288;28;20212;-70
2023/05/12 10:10:47;;;;;;;0.63;0.63;;;;;;;18.70;57.66;99986.47;5052556;28;20197;-71
2023/05/12 10:13:15;;;;;;;0.50;0.50;;;;;;;18.65;56.88;99959.88;5052147;28;20237;-72
2023/05/12 10:15:43;;;;;;;0.50;0.50;;;;;;;18.56;57.89;99962.13;5052436;28;20239;-71
2023/05/12 10:18:11;;;;;;;0.50;0.50;;;;;;;18.59;58.35;99955.03;5052096;28;20572;-71
2023/05/12 10:20:40;;;;;;;0.67;0.67;;;;;;;18.76;57.23;99969.69;5051936;28;20213;-71
2023/05/12 10:23:07;;;;;;;0.60;0.60;;;;;;;18.83;58.19;99966.69;5049732;28;20197;-71
2023/05/12 10:25:34;;;;;;;0.40;0.40;;;;;;;18.84;56.79;99970.94;5052128;28;20207;-72
2023/05/12 10:28:02;;;;;;;0.50;0.50;;;;;;;19.05;58.96;99960.28;5051759;28;20207;-72
2023/05/12 10:30:31;;;;;;;0.57;0.57;;;;;;;18.99;58.02;99963.25;5052028;28;20246;-72
2023/05/12 10:32:58;;;;;;;0.70;0.70;;;;;;;19.16;58.88;99955.34;5051857;28;20202;-72
2023/05/12 10:35:32;;;;;;;0.40;0.40;;;;;;;19.03;54.66;99960.38;5049096;28;20655;-73
2023/05/12 10:38:02;;;;;;;0.60;0.60;;;;;;;18.79;53.74;99959.16;5052017;28;20196;-71
2023/05/12 10:40:29;;;;;;;0.60;0.60;;;;;;;18.81;53.52;99959.88;5051792;28;20207;-71
2023/05/12 10:42:59;;;;;;;0.60;0.60;;;;;;;18.87;56.21;99955.19;5051868;28;20197;-71
2023/05/12 10:45:26;;;;;;;0.40;0.40;;;;;;;19.01;56.01;99957.03;5051452;28;20201;-73
2023/05/12 10:48:05;;;;;;;0.50;0.50;;;;;;;19.08;55.18;99941.94;5051141;28;20755;-72
2023/05/12 10:50:32;;;;;;;0.50;0.50;;;;;;;18.83;54.70;99919.94;5049188;28;20199;-72
2023/05/12 10:52:59;;;;;;;0.40;0.40;;;;;;;19.01;54.50;99935.41;5051112;28;20243;-71
2023/05/12 10:55:34;;;;;;;0.70;0.70;;;;;;;19.14;55.70;99936.38;5051018;28;20206;-72
2023/05/12 10:58:05;;;;;;;0.40;0.40;;;;;;;19.13;53.92;99937.28;5051245;28;20200;-71
2023/05/12 11:00:42;;;;;;;0.50;0.50;;;;;;;18.92;55.24;99944.56;5051110;28;20194;-72
2023/05/12 11:03:15;;;;;;;0.50;0.50;;;;;;;18.71;56.07;99938.78;5051469;28;20211;-72
2023/05/12 11:05:42;;;;;;;0.60;0.60;;;;;;;19.00;58.07;99938.94;5051150;28;20221;-72
2023/05/12 11:08:09;;;;;;;0.40;0.40;;;;;;;19.20;56.56;99938.63;5051251;28;20255;-73
2023/05/12 11:10:36;;;;;;;0.40;0.40;;;;;;;19.50;57.01;99925.66;5050856;28;20200;-72
2023/05/12 11:13:03;;;;;;;0.53;0.53;;;;;;;19.57;54.19;99924.38;5051453;28;20632;-73
2023/05/12 11:15:30;;;;;;;0.30;0.30;;;;;;;19.58;52.40;99937.28;5050812;28;20212;-72
2023/05/12 11:17:57;;;;;;;0.47;0.47;;;;;;;19.19;52.83;99930.00;5050724;28;20671;-72
2023/05/12 11:20:26;;;;;;;0.47;0.47;;;;;;;19.20;53.40;99936.88;5050878;28;20211;-71
2023/05/12 11:22:53;;;;;;;0.57;0.57;;;;;;;19.11;52.76;99942.59;5050263;28;20202;-72
2023/05/12 11:25:20;;;;;;;0.50;0.50;;;;;;;19.30;53.86;99937.19;5050849;28;20203;-71
2023/05/12 11:27:48;;;;;;;0.40;0.40;;;;;;;19.30;51.09;99937.19;5050920;28;20244;-72
2023/05/12 11:30:15;;;;;;;0.50;0.50;;;;;;;19.36;51.30;99931.63;5050461;28;20198;-71